Impacts METAR Board
IDs:

KDFW - Dallas-Ft Worth Intl, TX, US

Updated at: 2200 UTC 20 Oct 2018
Potential Impact None Slight Moderate High
Time 20/10Z 20/11Z 20/12Z 20/13Z 20/14Z 20/15Z 20/16Z 20/17Z 20/18Z 20/19Z 20/20Z 20/21Z 20/22Z
Temp59 59 57 57 59 59 60 62 66 69 72 73 72
Dewpt58 57 55 55 56 56 55 56 57 56 54 48 47
Altim30.15 30.16 30.18 30.18 30.21 30.24 30.26 30.26 30.24 30.21 30.20 30.20 30.21
VIS7 10 9 9 10 10 10 10 10 10 10 10 10
CIG8 9 24 -- 9 9 12 14 250 250 250 250 250
CoverOVCOVCBKNSCTBKNOVCBKNBKNBKNBKNBKNBKNBKN
FltCatIFRIFRMVFRVFRIFRIFRMVFRMVFRVFRVFRVFRVFRVFR
WX--------------------------
WDir20103403503503030101020102020
WSpd5 7 4 6 6 13 14 10 10 14 13 16 14
WGst-- -- -- -- -- -- -- -- -- -- -- 20 --
Raw hourly METARs
KDFW 201004Z 02005KT 7SM BKN008 OVC011 15/14 A3015 RMK AO2 T01500144
KDFW 201053Z 01007KT 10SM OVC009 15/14 A3016 RMK AO2 SLP211 T01500139
KDFW 201153Z 34004KT 9SM FEW009 BKN024 BKN250 14/13 A3018 RMK AO2 SLP217 70092 T01390128 10150 20139 53013
KDFW 201253Z 35006KT 9SM FEW009 SCT022 SCT120 SCT250 14/13 A3018 RMK AO2 SLP218 T01390128
KDFW 201353Z 35006KT 10SM BKN009 BKN022 BKN120 15/13 A3021 RMK AO2 SLP226 BKN009 V SCT T01500133
KDFW 201453Z 03013KT 10SM BKN009 OVC012 15/13 A3024 RMK AO2 SLP235 T01500133 53018
KDFW 201553Z 03014KT 10SM FEW009 BKN012 16/13 A3026 RMK AO2 SLP241 T01560128
KDFW 201653Z 01010KT 10SM BKN014 BKN120 17/13 A3026 RMK AO2 SLP241 T01670133
KDFW 201753Z 01010KT 10SM FEW017 SCT120 BKN250 19/14 A3024 RMK AO2 SLP235 T01890139 10189 20133 50001
KDFW 201853Z 02014KT 10SM FEW020 FEW120 BKN250 21/13 A3021 RMK AO2 SLP224 T02060133
KDFW 201953Z 01013KT 10SM FEW120 BKN250 22/12 A3020 RMK AO2 SLP220 T02220122
KDFW 202053Z 02016G20KT 10SM FEW120 BKN250 23/09 A3020 RMK AO2 SLP221 T02280089 55013
KDFW 202153Z 02014KT 10SM FEW120 BKN250 22/08 A3021 RMK AO2 SLP226 T02220083



Page loaded:  22:27 UTC  |   03:27 PM Pacific  |   04:27 PM Mountain  |   05:27 PM Central  |   06:27 PM Eastern

 

ADVISORIES

FORECASTS

FORECASTS

OBSERVATIONS

USER TOOLS

ABOUT US